Time;durP1;ratioP1;P1;durP2;ratioP2;P2;SDS_P1;SDS_P2;PMS_P1;PMS_P2;Temp;Humidity;BMP_temperature;BMP_pressure;BME280_temperature;BME280_humidity;BME280_pressure;Samples;Min_cycle;Max_cycle;Signal;HPM_P1;HPM_P2
2023/04/11 00:01:48;;;;;;;37.00;22.10;;;;;;;19.12;37.98;100435.20;108119;1253;72965;-66
2023/04/11 00:04:15;;;;;;;34.00;20.60;;;;;;;19.22;37.75;100435.05;108113;1256;68866;-64
2023/04/11 00:06:42;;;;;;;37.80;22.20;;;;;;;19.21;37.75;100432.73;108130;1253;72037;-67
2023/04/11 00:09:10;;;;;;;31.30;19.60;;;;;;;19.16;37.83;100433.27;108078;1253;60496;-66
2023/04/11 00:11:37;;;;;;;44.70;24.20;;;;;;;19.27;37.60;100431.31;108123;1253;60737;-67
2023/04/11 00:14:04;;;;;;;39.40;22.30;;;;;;;19.25;37.59;100431.58;108118;1256;74952;-66
2023/04/11 00:16:32;;;;;;;40.30;23.00;;;;;;;19.21;37.60;100431.13;108104;1253;60262;-66
2023/04/11 00:19:00;;;;;;;40.30;23.40;;;;;;;19.18;37.56;100435.85;108119;1253;73604;-67
2023/04/11 00:21:26;;;;;;;37.70;21.90;;;;;;;19.00;37.71;100433.65;108115;1253;60320;-66
2023/04/11 00:23:54;;;;;;;35.60;20.70;;;;;;;18.98;37.87;100431.44;108110;1253;61884;-65
2023/04/11 00:26:21;;;;;;;38.90;21.60;;;;;;;19.04;37.77;100428.56;108046;1253;74298;-67
2023/04/11 00:28:50;;;;;;;34.50;19.50;;;;;;;18.99;37.87;100429.80;108059;1253;71515;-65
2023/04/11 00:31:17;;;;;;;40.20;22.70;;;;;;;18.81;38.08;100432.27;108028;1253;73682;-67
2023/04/11 00:33:44;;;;;;;37.40;23.00;;;;;;;18.68;38.24;100436.27;108048;1253;62205;-66
2023/04/11 00:36:10;;;;;;;31.80;19.90;;;;;;;18.73;38.16;100430.44;108014;1254;60448;-66
2023/04/11 00:38:39;;;;;;;40.00;23.40;;;;;;;18.75;38.20;100429.63;107997;1254;74136;-66
2023/04/11 00:41:16;;;;;;;32.30;19.10;;;;;;;18.89;37.80;100423.91;107991;1254;70893;-66
2023/04/11 00:43:48;;;;;;;38.70;23.30;;;;;;;18.87;37.85;100421.02;107980;1254;73766;-66
2023/04/11 00:46:16;;;;;;;45.70;24.20;;;;;;;18.82;37.96;100418.45;108005;1254;60503;-66
2023/04/11 00:48:43;;;;;;;34.00;20.50;;;;;;;18.91;37.71;100416.09;108035;1254;60327;-66
2023/04/11 00:51:22;;;;;;;39.00;22.90;;;;;;;18.76;37.97;100421.38;107956;1254;75340;-66
2023/04/11 00:53:49;;;;;;;39.50;22.90;;;;;;;18.79;37.97;100420.27;107990;1253;70321;-66
2023/04/11 00:56:17;;;;;;;32.90;19.70;;;;;;;18.84;37.80;100418.87;108093;1254;73119;-66
2023/04/11 00:58:44;;;;;;;39.10;23.00;;;;;;;18.74;37.98;100422.94;108068;1256;61585;-66
2023/04/11 01:01:11;;;;;;;34.00;19.60;;;;;;;18.80;37.82;100425.01;108058;1256;61263;-68
2023/04/11 01:03:38;;;;;;;42.70;23.90;;;;;;;18.81;37.79;100427.45;108198;1253;75244;-67
2023/04/11 01:06:09;;;;;;;43.00;23.40;;;;;;;18.87;37.69;100427.27;108114;1253;70445;-66
2023/04/11 01:08:35;;;;;;;38.60;21.70;;;;;;;18.87;37.70;100426.00;108071;1253;72664;-66
2023/04/11 01:11:02;;;;;;;40.50;24.00;;;;;;;18.99;37.42;100425.66;107956;1253;62436;-67
2023/04/11 01:13:29;;;;;;;38.50;23.90;;;;;;;19.09;37.36;100423.94;107953;1255;61619;-66
2023/04/11 01:15:56;;;;;;;39.40;22.20;;;;;;;19.25;37.05;100424.64;108012;1254;74847;-66
2023/04/11 01:18:24;;;;;;;38.00;22.80;;;;;;;18.95;37.40;100429.92;107998;1253;71589;-65
2023/04/11 01:20:51;;;;;;;37.30;21.70;;;;;;;19.02;37.22;100424.09;107963;1253;73758;-68
2023/04/11 01:23:25;;;;;;;44.80;24.30;;;;;;;19.15;37.06;100423.95;108062;1255;61948;-67
2023/04/11 01:25:51;;;;;;;42.50;23.80;;;;;;;19.07;36.95;100422.34;108045;1253;60197;-67
2023/04/11 01:28:18;;;;;;;33.30;20.70;;;;;;;18.80;37.55;100423.62;107867;1253;73153;-66
2023/04/11 01:30:45;;;;;;;45.90;26.20;;;;;;;18.81;37.52;100422.26;108065;1253;70344;-65
2023/04/11 01:33:14;;;;;;;45.50;24.20;;;;;;;18.61;37.71;100424.65;108103;1253;72010;-66
2023/04/11 01:35:42;;;;;;;48.90;27.30;;;;;;;18.60;37.72;100421.84;107906;1253;60617;-66
2023/04/11 01:38:11;;;;;;;47.40;25.20;;;;;;;18.50;37.79;100420.38;107970;1253;61387;-66
2023/04/11 01:40:38;;;;;;;41.20;23.90;;;;;;;18.72;37.41;100417.37;107996;1258;75275;-67
2023/04/11 01:43:07;;;;;;;45.00;24.60;;;;;;;18.76;37.38;100415.84;108047;1253;70585;-66
2023/04/11 01:45:34;;;;;;;44.40;24.20;;;;;;;18.65;37.36;100413.51;107964;1253;72954;-66
2023/04/11 01:48:06;;;;;;;43.60;23.50;;;;;;;18.72;37.42;100413.79;108039;1253;60303;-67
2023/04/11 01:50:33;;;;;;;43.80;25.00;;;;;;;18.69;37.37;100409.04;108106;1253;60188;-65
2023/04/11 01:53:00;;;;;;;38.50;23.30;;;;;;;18.69;37.40;100407.98;108080;1253;74710;-66
2023/04/11 01:55:32;;;;;;;45.20;25.90;;;;;;;18.65;37.44;100401.10;108085;1253;71215;-66
2023/04/11 01:57:59;;;;;;;41.60;24.20;;;;;;;18.75;37.24;100399.59;108151;1254;60261;-65
2023/04/11 02:00:26;;;;;;;34.00;22.10;;;;;;;18.76;37.14;100399.11;107995;1254;62343;-66
2023/04/11 02:02:52;;;;;;;41.90;23.50;;;;;;;18.66;37.23;100398.88;107832;1255;60074;-66
2023/04/11 02:05:20;;;;;;;31.60;19.90;;;;;;;18.78;37.14;100398.86;108004;1254;74647;-65
2023/04/11 02:07:49;;;;;;;40.40;23.40;;;;;;;18.75;37.05;100398.47;108042;1254;71099;-67
2023/04/11 02:10:17;;;;;;;43.10;25.70;;;;;;;18.58;37.21;100399.56;108098;1257;72273;-66
2023/04/11 02:12:44;;;;;;;38.60;21.50;;;;;;;18.38;37.47;100395.94;108108;1253;62197;-67
2023/04/11 02:15:18;;;;;;;41.10;25.00;;;;;;;18.43;37.37;100397.73;108130;1253;60287;-65
2023/04/11 02:17:52;;;;;;;40.00;23.40;;;;;;;18.23;37.61;100394.37;108007;1253;73238;-65
2023/04/11 02:20:22;;;;;;;33.30;21.00;;;;;;;18.32;37.54;100391.67;108099;1253;70506;-66
2023/04/11 02:22:52;;;;;;;42.60;23.90;;;;;;;18.13;37.81;100388.64;108101;1253;72145;-65
2023/04/11 02:25:19;;;;;;;38.70;21.70;;;;;;;18.16;37.78;100386.86;108100;1256;62106;-65
2023/04/11 02:27:46;;;;;;;41.90;24.90;;;;;;;18.32;37.69;100383.88;107957;1253;60671;-65
2023/04/11 02:30:19;;;;;;;39.50;23.90;;;;;;;18.26;37.55;100384.27;108001;1253;73937;-65
2023/04/11 02:32:57;;;;;;;38.00;21.40;;;;;;;18.37;37.28;100385.48;108055;1253;70525;-65
2023/04/11 02:35:25;;;;;;;39.00;23.70;;;;;;;18.07;37.63;100387.23;107912;1253;71587;-66
2023/04/11 02:37:54;;;;;;;45.20;26.50;;;;;;;17.97;37.80;100387.88;107963;1253;62394;-66
2023/04/11 02:40:22;;;;;;;34.30;21.50;;;;;;;18.03;37.79;100388.25;107994;1253;60290;-66
2023/04/11 02:42:49;;;;;;;35.80;22.40;;;;;;;17.98;37.89;100384.13;108048;1253;75140;-66
2023/04/11 02:45:16;;;;;;;34.90;20.90;;;;;;;17.97;37.79;100380.45;107901;1252;70477;-67
2023/04/11 02:47:42;;;;;;;39.30;24.20;;;;;;;17.96;37.86;100378.94;108001;1253;72972;-66
2023/04/11 02:50:14;;;;;;;41.00;23.80;;;;;;;17.81;38.06;100380.70;107986;1253;62187;-66
2023/04/11 02:52:46;;;;;;;37.10;22.70;;;;;;;17.80;37.85;100377.58;108176;1253;60343;-66
2023/04/11 02:55:16;;;;;;;41.90;24.20;;;;;;;17.70;37.85;100377.63;108029;1254;73116;-67
2023/04/11 02:57:43;;;;;;;34.70;20.90;;;;;;;17.64;37.94;100381.04;107907;1254;72049;-67
2023/04/11 03:00:11;;;;;;;32.90;20.80;;;;;;;17.65;37.98;100377.45;107941;1255;71766;-66
2023/04/11 03:02:48;;;;;;;41.40;23.60;;;;;;;17.99;37.58;100374.78;108189;1253;61406;-67
2023/04/11 03:05:17;;;;;;;32.30;20.90;;;;;;;18.23;37.02;100371.45;108057;1254;61117;-66
2023/04/11 03:07:46;;;;;;;41.80;23.40;;;;;;;18.31;36.75;100368.65;108230;1254;74670;-66
2023/04/11 03:10:23;;;;;;;38.80;23.30;;;;;;;18.43;36.49;100370.02;108189;1252;71141;-67
2023/04/11 03:12:50;;;;;;;36.10;22.40;;;;;;;18.27;36.57;100372.11;108154;1254;73662;-66
2023/04/11 03:15:17;;;;;;;36.40;22.50;;;;;;;18.33;36.59;100375.49;108078;1253;62241;-66
2023/04/11 03:17:45;;;;;;;36.20;21.90;;;;;;;18.44;36.41;100371.88;108163;1253;60587;-66
2023/04/11 03:20:19;;;;;;;37.30;23.50;;;;;;;18.31;36.51;100370.41;108144;1253;74326;-67
2023/04/11 03:22:48;;;;;;;40.10;24.10;;;;;;;17.82;37.15;100369.80;108185;1256;69903;-66
2023/04/11 03:25:15;;;;;;;32.90;20.30;;;;;;;17.83;37.26;100372.42;108198;1254;72680;-67
2023/04/11 03:27:43;;;;;;;42.80;24.00;;;;;;;18.28;36.66;100373.67;108008;1254;62180;-67
2023/04/11 03:30:15;;;;;;;35.90;22.30;;;;;;;18.21;36.57;100371.61;108025;1254;61224;-66
2023/04/11 03:32:44;;;;;;;40.80;20.50;;;;;;;18.29;36.53;100373.41;108090;1254;74608;-67
2023/04/11 03:35:10;;;;;;;39.70;24.00;;;;;;;18.39;36.41;100373.83;108031;1254;68324;-65
2023/04/11 03:37:41;;;;;;;32.40;20.50;;;;;;;18.39;36.32;100373.80;108039;1254;73124;-67
2023/04/11 03:40:09;;;;;;;34.00;20.60;;;;;;;18.34;36.33;100375.41;107972;1254;61661;-67
2023/04/11 03:42:38;;;;;;;36.90;23.40;;;;;;;18.59;36.08;100373.35;108044;1255;61909;-68
2023/04/11 03:45:07;;;;;;;37.40;23.50;;;;;;;18.66;35.97;100373.10;108049;1254;74910;-67
2023/04/11 03:47:34;;;;;;;43.70;23.90;;;;;;;18.29;36.52;100378.57;108010;1254;69336;-67
2023/04/11 03:50:02;;;;;;;38.90;25.10;;;;;;;18.39;36.34;100377.21;107999;1254;73570;-64
2023/04/11 03:52:31;;;;;;;38.70;23.60;;;;;;;18.69;36.17;100375.73;108030;1254;62207;-66
2023/04/11 03:54:58;;;;;;;41.50;23.40;;;;;;;18.99;36.11;100375.89;108017;1254;60194;-66
2023/04/11 03:57:26;;;;;;;47.70;23.30;;;;;;;18.99;36.14;100379.98;108159;1254;74699;-65
2023/04/11 03:59:57;;;;;;;40.20;23.20;;;;;;;19.38;35.94;100378.34;108166;1254;71003;-65
2023/04/11 04:02:24;;;;;;;43.00;24.20;;;;;;;19.67;35.56;100377.60;108179;1253;72635;-66
2023/04/11 04:04:57;;;;;;;35.70;22.40;;;;;;;20.25;34.81;100377.34;108054;1259;62687;-67
2023/04/11 04:07:36;;;;;;;39.60;21.30;;;;;;;20.71;34.18;100370.17;108158;1253;61351;-66
2023/04/11 04:10:11;;;;;;;36.00;21.10;;;;;;;21.03;33.34;100368.08;108171;1252;74466;-66
2023/04/11 04:12:39;;;;;;;31.00;20.50;;;;;;;21.31;33.03;100370.77;108064;1254;71172;-67
2023/04/11 04:15:28;;;;;;;32.60;20.40;;;;;;;21.65;32.49;100367.64;108166;1253;71950;-67
2023/04/11 04:17:56;;;;;;;35.00;19.20;;;;;;;22.07;32.01;100363.28;108045;1253;61149;-66
2023/04/11 04:20:40;;;;;;;32.90;18.80;;;;;;;22.52;30.24;100359.25;108107;1253;60254;-68
2023/04/11 04:23:07;;;;;;;27.20;18.10;;;;;;;22.88;30.09;100357.55;108063;1254;73162;-67
2023/04/11 04:25:46;;;;;;;25.80;17.80;;;;;;;23.20;29.46;100353.35;108158;1254;71419;-67
2023/04/11 04:28:16;;;;;;;30.70;19.00;;;;;;;23.54;28.84;100353.15;108038;1256;73655;-67
2023/04/11 04:30:48;;;;;;;26.60;18.50;;;;;;;23.74;28.14;100347.23;108183;1256;61629;-67
2023/04/11 04:33:17;;;;;;;31.20;17.80;;;;;;;23.59;28.31;100344.43;108138;1253;60425;-66
2023/04/11 04:35:56;;;;;;;28.20;17.90;;;;;;;23.85;27.81;100342.50;108155;1254;74851;-66
2023/04/11 04:38:27;;;;;;;30.70;18.70;;;;;;;24.05;27.35;100340.91;108147;1254;70906;-67
2023/04/11 04:40:57;;;;;;;27.10;17.90;;;;;;;24.22;27.03;100333.45;108094;1254;72724;-67
2023/04/11 04:43:26;;;;;;;29.90;17.20;;;;;;;24.47;26.73;100327.23;108007;1253;60520;-67
2023/04/11 04:45:57;;;;;;;23.40;16.30;;;;;;;24.77;26.38;100322.67;108146;1253;59002;-67
2023/04/11 04:48:32;;;;;;;31.10;17.50;;;;;;;24.94;26.01;100321.42;108170;1253;74369;-66
2023/04/11 04:50:59;;;;;;;25.80;17.50;;;;;;;25.07;25.44;100318.42;108149;1253;71573;-68
2023/04/11 04:53:29;;;;;;;25.40;16.00;;;;;;;25.39;25.59;100319.30;108132;1253;73873;-67
2023/04/11 04:56:00;;;;;;;28.10;16.00;;;;;;;25.74;25.28;100317.16;108066;1253;61466;-68
2023/04/11 04:58:29;;;;;;;24.90;16.90;;;;;;;25.79;24.77;100314.69;108094;1253;60421;-66
2023/04/11 05:01:01;;;;;;;22.70;16.10;;;;;;;25.99;24.37;100312.71;108161;1253;74046;-67
2023/04/11 05:03:33;;;;;;;25.10;16.20;;;;;;;26.25;24.06;100308.42;108119;1253;71631;-67
2023/04/11 05:06:01;;;;;;;28.70;15.90;;;;;;;26.44;23.82;100305.71;108055;1253;73653;-68
2023/04/11 05:08:33;;;;;;;22.60;14.60;;;;;;;26.45;23.27;100302.35;108092;1253;60299;-67
2023/04/11 05:11:01;;;;;;;23.10;15.00;;;;;;;26.59;23.08;100301.02;108180;1253;60275;-65
2023/04/11 05:13:29;;;;;;;23.40;15.50;;;;;;;26.86;22.99;100299.35;108130;1254;74748;-66
2023/04/11 05:15:57;;;;;;;29.70;15.10;;;;;;;27.11;22.52;100302.73;108161;1252;70103;-67
2023/04/11 05:18:28;;;;;;;20.50;14.20;;;;;;;27.39;22.16;100301.95;108127;1253;73692;-67
2023/04/11 05:20:55;;;;;;;21.80;14.40;;;;;;;27.39;21.83;100299.65;108200;1253;60399;-67
2023/04/11 05:23:23;;;;;;;24.40;15.20;;;;;;;27.47;21.94;100304.02;108215;1252;60668;-68
2023/04/11 05:25:52;;;;;;;23.20;14.80;;;;;;;27.40;21.65;100294.60;108152;1253;75457;-68
2023/04/11 05:28:20;;;;;;;23.20;14.40;;;;;;;27.59;21.70;100293.92;108176;1253;68914;-67
2023/04/11 05:30:47;;;;;;;19.60;13.80;;;;;;;27.60;21.47;100295.11;108161;1252;72703;-67
2023/04/11 05:33:15;;;;;;;20.60;13.40;;;;;;;27.87;20.94;100292.18;108141;1253;61335;-67
2023/04/11 05:35:42;;;;;;;26.10;14.70;;;;;;;27.95;20.72;100293.73;108188;1253;61362;-66
2023/04/11 05:38:09;;;;;;;24.20;13.90;;;;;;;28.39;20.58;100289.83;108157;1255;74784;-66
2023/04/11 05:40:39;;;;;;;24.50;13.50;;;;;;;28.58;20.37;100288.60;108148;1253;70563;-68
2023/04/11 05:43:05;;;;;;;23.10;14.00;;;;;;;28.80;20.35;100291.64;108101;1252;73516;-67
2023/04/11 05:45:35;;;;;;;24.00;14.00;;;;;;;28.86;20.01;100293.52;108124;1253;60360;-66
2023/04/11 05:48:06;;;;;;;21.90;12.90;;;;;;;29.04;19.81;100290.39;108140;1252;60214;-67
2023/04/11 05:50:35;;;;;;;15.20;10.50;;;;;;;29.44;19.66;100292.60;108206;1253;73150;-65
2023/04/11 05:53:02;;;;;;;17.90;12.20;;;;;;;29.32;19.47;100290.50;108197;1253;69813;-68
2023/04/11 05:55:28;;;;;;;18.50;12.20;;;;;;;29.31;19.65;100289.89;108086;1253;72109;-68
2023/04/11 05:57:58;;;;;;;22.70;12.70;;;;;;;29.36;19.47;100289.47;108272;1251;61178;-68
2023/04/11 06:00:27;;;;;;;18.80;12.00;;;;;;;29.58;19.55;100287.18;108232;1251;59665;-67
2023/04/11 06:03:08;;;;;;;18.90;11.30;;;;;;;29.79;19.29;100280.27;108257;1251;73060;-68
2023/04/11 06:05:36;;;;;;;16.40;10.60;;;;;;;29.73;19.12;100284.25;108185;1256;70970;-68
2023/04/11 06:08:05;;;;;;;14.00;10.10;;;;;;;30.07;18.95;100280.07;108187;1256;72705;-68
2023/04/11 06:10:32;;;;;;;21.20;10.60;;;;;;;30.10;19.03;100282.42;108214;1251;61476;-67
2023/04/11 06:12:59;;;;;;;14.10;9.70;;;;;;;30.41;18.74;100278.64;108249;1251;60329;-67
2023/04/11 06:15:26;;;;;;;12.50;9.10;;;;;;;30.49;18.81;100280.04;108402;1251;75048;-67
2023/04/11 06:17:56;;;;;;;17.20;8.90;;;;;;;30.55;18.55;100277.56;108300;1251;71530;-67
2023/04/11 06:20:26;;;;;;;13.60;9.40;;;;;;;30.84;18.74;100276.19;108257;1251;73952;-68
2023/04/11 06:22:52;;;;;;;12.40;9.10;;;;;;;31.24;18.23;100272.73;108330;1252;61330;-68
2023/04/11 06:25:20;;;;;;;14.60;9.10;;;;;;;31.73;18.07;100269.61;108313;1251;61335;-69
2023/04/11 06:27:47;;;;;;;12.40;8.00;;;;;;;32.38;17.89;100267.08;108294;1255;72025;-68
2023/04/11 06:30:14;;;;;;;14.20;8.00;;;;;;;32.68;17.55;100265.47;108360;1255;71529;-66
2023/04/11 06:32:42;;;;;;;12.50;7.00;;;;;;;32.60;17.20;100262.11;108255;1256;71842;-68
2023/04/11 06:35:09;;;;;;;19.60;7.30;;;;;;;32.14;17.18;100265.73;108246;1251;60492;-68
2023/04/11 06:37:36;;;;;;;12.90;6.80;;;;;;;32.03;17.19;100262.91;108316;1251;61341;-67
2023/04/11 06:40:05;;;;;;;16.50;7.50;;;;;;;32.32;17.21;100263.55;108316;1251;74328;-66
2023/04/11 06:42:32;;;;;;;12.10;7.10;;;;;;;32.89;16.92;100263.65;108324;1256;70179;-68
2023/04/11 06:45:00;;;;;;;11.50;6.10;;;;;;;32.84;16.78;100259.64;108312;1251;72421;-67
2023/04/11 06:47:31;;;;;;;13.90;6.00;;;;;;;32.82;16.40;100256.34;108303;1251;61107;-67
2023/04/11 06:49:58;;;;;;;11.30;6.00;;;;;;;32.58;16.37;100253.09;108260;1251;60412;-68
2023/04/11 06:52:26;;;;;;;10.20;5.70;;;;;;;32.17;16.53;100255.48;108352;1251;74809;-69
2023/04/11 06:54:55;;;;;;;15.20;6.00;;;;;;;32.05;16.71;100259.38;108329;1251;70867;-69
2023/04/11 06:57:22;;;;;;;12.90;5.90;;;;;;;32.16;16.60;100257.08;108301;1251;71480;-69
2023/04/11 06:59:49;;;;;;;11.30;6.00;;;;;;;31.98;16.60;100260.35;108323;1251;61261;-67
2023/04/11 07:02:17;;;;;;;12.00;6.00;;;;;;;32.08;16.77;100255.77;108329;1251;61325;-67
2023/04/11 07:04:44;;;;;;;14.20;5.80;;;;;;;31.73;16.76;100255.16;108329;1251;72883;-69
2023/04/11 07:07:11;;;;;;;13.80;6.40;;;;;;;31.77;17.10;100251.30;108324;1251;71507;-68
2023/04/11 07:09:38;;;;;;;11.10;6.00;;;;;;;31.81;17.27;100246.88;108274;1251;72101;-68
2023/04/11 07:12:05;;;;;;;12.70;6.10;;;;;;;32.01;17.24;100240.99;108289;1251;60340;-67
2023/04/11 07:14:37;;;;;;;14.80;6.70;;;;;;;31.76;17.27;100237.27;108286;1251;60553;-69
2023/04/11 07:17:11;;;;;;;17.80;6.40;;;;;;;31.92;17.32;100231.70;108262;1251;75174;-68
2023/04/11 07:19:37;;;;;;;12.90;6.00;;;;;;;32.21;17.01;100230.29;108246;1255;71632;-67
2023/04/11 07:22:06;;;;;;;16.30;6.10;;;;;;;32.24;17.03;100224.98;108240;1251;72886;-68
2023/04/11 07:24:33;;;;;;;13.00;7.00;;;;;;;32.58;16.91;100226.01;108230;1251;60203;-68
2023/04/11 07:27:00;;;;;;;16.00;7.00;;;;;;;32.72;16.52;100230.81;108237;1256;61382;-69
2023/04/11 07:29:27;;;;;;;16.30;6.50;;;;;;;32.45;16.65;100226.85;108289;1251;73836;-68
2023/04/11 07:31:54;;;;;;;13.90;6.30;;;;;;;32.33;16.35;100224.20;108295;1251;69240;-68
2023/04/11 07:34:21;;;;;;;11.90;7.20;;;;;;;32.42;16.50;100229.05;108278;1251;73877;-68
2023/04/11 07:36:50;;;;;;;17.00;7.30;;;;;;;32.91;16.26;100222.84;108331;1256;61879;-67
2023/04/11 07:39:17;;;;;;;15.00;7.40;;;;;;;33.22;16.18;100224.75;108910;1251;60366;-67
2023/04/11 07:41:48;;;;;;;13.90;6.70;;;;;;;33.32;16.07;100220.73;108723;1251;73436;-68
2023/04/11 07:44:15;;;;;;;14.50;6.60;;;;;;;33.15;16.20;100218.75;108738;1251;70407;-67
2023/04/11 07:46:41;;;;;;;15.30;7.10;;;;;;;33.21;16.20;100213.80;108769;1251;72626;-69
2023/04/11 07:49:09;;;;;;;13.70;6.40;;;;;;;33.53;16.12;100209.27;108373;1256;60283;-68
2023/04/11 07:51:38;;;;;;;16.90;6.20;;;;;;;33.50;16.08;100207.39;108360;1251;60568;-67
2023/04/11 07:54:05;;;;;;;15.40;6.60;;;;;;;33.97;15.96;100203.42;108387;1251;75054;-68
2023/04/11 07:56:31;;;;;;;12.30;6.50;;;;;;;34.43;15.48;100196.70;108492;1256;69456;-69
2023/04/11 07:59:00;;;;;;;9.00;5.90;;;;;;;34.41;15.44;100199.68;108341;1251;65051;-69
2023/04/11 08:01:27;;;;;;;12.80;5.90;;;;;;;33.71;15.38;100197.60;108295;1251;61851;-67
2023/04/11 08:03:54;;;;;;;10.20;6.10;;;;;;;33.48;15.58;100197.50;108299;1251;61373;-67
2023/04/11 08:06:21;;;;;;;12.90;6.40;;;;;;;33.48;15.78;100200.55;108291;1251;74642;-67
2023/04/11 08:08:50;;;;;;;11.50;5.90;;;;;;;33.30;15.72;100191.59;108278;1251;71334;-68
2023/04/11 08:11:16;;;;;;;12.40;6.60;;;;;;;33.43;15.98;100184.71;108284;1251;73916;-69
2023/04/11 08:16:25;;;;;;;14.10;6.80;;;;;;;30.78;17.97;100183.55;105047;1290;600312;-67
2023/04/11 08:18:56;;;;;;;12.10;6.20;;;;;;;32.11;16.86;100179.95;107514;1264;60924;-67
2023/04/11 08:21:26;;;;;;;10.80;6.00;;;;;;;32.05;17.00;100181.91;107639;1264;61436;-68
2023/04/11 08:23:54;;;;;;;13.50;6.40;;;;;;;31.76;17.06;100179.01;107462;1265;72068;-68
2023/04/11 08:26:23;;;;;;;12.70;6.60;;;;;;;31.88;16.84;100171.13;107528;1263;71502;-68
2023/04/11 08:28:57;;;;;;;13.10;6.60;;;;;;;31.96;16.94;100167.35;107851;1257;194784;-70
2023/04/11 08:31:25;;;;;;;15.60;6.40;;;;;;;31.79;17.23;100166.02;108271;1255;58804;-67
2023/04/11 08:33:54;;;;;;;12.40;6.70;;;;;;;31.58;17.18;100170.45;108184;1254;59480;-67
2023/04/11 08:36:26;;;;;;;12.00;5.90;;;;;;;31.51;17.17;100165.16;108241;1253;73114;-68
2023/04/11 08:38:55;;;;;;;14.50;6.30;;;;;;;31.70;17.06;100161.35;108326;1255;70952;-67
2023/04/11 08:41:29;;;;;;;9.20;5.90;;;;;;;31.75;17.09;100157.17;108523;1253;73560;-68
2023/04/11 08:43:57;;;;;;;13.10;6.10;;;;;;;31.75;17.03;100156.34;108614;1248;61167;-68
2023/04/11 08:46:25;;;;;;;9.30;5.50;;;;;;;31.46;17.34;100149.36;108490;1254;59464;-68
2023/04/11 08:48:53;;;;;;;17.50;6.00;;;;;;;31.35;17.17;100150.70;108327;1249;73955;-68
2023/04/11 08:51:23;;;;;;;10.60;6.00;;;;;;;31.34;17.43;100147.23;108314;1248;69875;-68
2023/04/11 08:53:56;;;;;;;9.60;5.60;;;;;;;31.20;17.64;100138.95;108694;1248;74591;-68
2023/04/11 08:56:25;;;;;;;8.80;6.00;;;;;;;31.53;17.67;100136.33;108435;1251;61556;-68
2023/04/11 08:58:56;;;;;;;9.20;5.70;;;;;;;31.77;17.37;100135.61;108319;1252;61216;-68
2023/04/11 09:01:30;;;;;;;14.10;6.30;;;;;;;31.98;17.28;100130.46;108294;1251;71414;-68
2023/04/11 09:04:00;;;;;;;11.60;6.40;;;;;;;32.19;17.06;100122.48;108256;1251;70739;-68
2023/04/11 09:06:31;;;;;;;14.40;6.30;;;;;;;32.57;16.79;100125.61;108267;1249;71695;-68
2023/04/11 09:09:01;;;;;;;12.80;5.90;;;;;;;32.79;16.79;100121.58;108237;1252;61133;-68
2023/04/11 09:11:29;;;;;;;11.70;6.30;;;;;;;32.66;16.72;100118.02;108277;1251;59638;-70
2023/04/11 09:14:08;;;;;;;15.50;6.00;;;;;;;32.48;16.98;100109.71;108303;1251;73711;-68
2023/04/11 09:16:37;;;;;;;17.50;5.50;;;;;;;32.20;17.45;100109.00;108263;1250;69617;-67
2023/04/11 09:19:13;;;;;;;14.20;5.50;;;;;;;31.73;17.55;100102.20;108245;1251;73976;-68
2023/04/11 09:21:49;;;;;;;11.40;5.50;;;;;;;31.96;17.76;100094.86;108281;1251;61500;-69
2023/04/11 09:24:17;;;;;;;11.60;5.30;;;;;;;33.03;17.08;100090.64;108286;1253;61127;-69
2023/04/11 09:26:45;;;;;;;15.90;5.70;;;;;;;33.90;16.50;100082.92;108266;1251;72460;-69
2023/04/11 09:29:37;;;;;;;15.00;5.70;;;;;;;33.62;16.25;100083.67;108249;1250;70426;-68
2023/04/11 09:32:05;;;;;;;9.80;5.50;;;;;;;33.56;16.38;100077.31;108232;1251;72648;-69
2023/04/11 09:34:36;;;;;;;15.60;5.90;;;;;;;34.06;16.43;100075.00;108296;1251;60253;-67
2023/04/11 09:37:05;;;;;;;12.70;5.10;;;;;;;33.90;16.42;100074.37;108255;1250;59617;-67
2023/04/11 09:39:33;;;;;;;10.90;5.10;;;;;;;33.82;16.32;100067.64;108279;1251;72923;-68
2023/04/11 09:42:02;;;;;;;11.70;5.10;;;;;;;33.06;16.60;100069.86;108257;1251;71393;-68
2023/04/11 09:44:37;;;;;;;11.10;5.00;;;;;;;32.76;17.05;100066.36;108296;1257;71944;-68
2023/04/11 09:47:05;;;;;;;12.40;4.90;;;;;;;33.09;17.25;100067.64;108325;1251;60043;-68
2023/04/11 09:49:35;;;;;;;11.50;5.60;;;;;;;34.01;16.55;100056.11;108219;1254;60173;-68
2023/04/11 09:52:03;;;;;;;7.50;5.00;;;;;;;33.77;16.65;100055.48;108267;1251;73440;-67
2023/04/11 09:54:32;;;;;;;14.70;4.80;;;;;;;33.43;16.95;100063.30;108371;1256;62759;-67
2023/04/11 09:57:01;;;;;;;12.70;4.70;;;;;;;32.84;17.65;100055.61;108246;1251;72933;-67
2023/04/11 09:59:29;;;;;;;10.20;5.00;;;;;;;31.42;18.49;100049.46;108271;1251;59614;-67
2023/04/11 10:01:57;;;;;;;11.90;5.10;;;;;;;31.79;18.54;100046.23;108272;1250;59432;-67
2023/04/11 10:04:26;;;;;;;12.40;4.70;;;;;;;31.98;18.46;100041.98;108284;1251;72705;-68
2023/04/11 10:07:13;;;;;;;10.80;4.60;;;;;;;32.61;18.39;100038.48;108224;1251;69380;-66
2023/04/11 10:09:42;;;;;;;12.70;5.30;;;;;;;32.33;18.43;100043.46;108264;1251;71671;-68
2023/04/11 10:12:11;;;;;;;12.70;5.20;;;;;;;32.31;18.48;100040.23;108195;1251;61347;-68
2023/04/11 10:14:40;;;;;;;12.10;4.70;;;;;;;32.30;18.18;100032.92;108273;1250;59868;-69
2023/04/11 10:17:15;;;;;;;11.40;5.60;;;;;;;32.53;18.39;100028.91;108252;1254;73966;-68
2023/04/11 10:19:55;;;;;;;;;;;;;;;32.88;17.93;100032.95;108354;1251;71000;-68
2023/04/11 10:22:50;;;;;;;9.20;5.10;;;;;;;32.88;18.17;100030.20;108276;1256;73756;-68
2023/04/11 10:25:20;;;;;;;11.70;5.50;;;;;;;32.56;18.33;100022.34;108218;1251;61386;-68
2023/04/11 10:28:00;;;;;;;11.40;5.90;;;;;;;32.60;18.06;100018.00;108397;1251;61387;-68
2023/04/11 10:30:38;;;;;;;14.10;6.70;;;;;;;32.42;18.26;100012.75;108293;1254;74440;-67
2023/04/11 10:33:15;;;;;;;17.30;5.80;;;;;;;32.59;18.39;100005.75;108257;1254;71549;-68
2023/04/11 10:36:05;;;;;;;20.10;6.10;;;;;;;32.66;18.15;100002.84;108271;1251;72597;-66
2023/04/11 10:38:40;;;;;;;11.30;5.10;;;;;;;32.68;18.24;100000.33;108334;1251;60009;-68
2023/04/11 10:41:27;;;;;;;10.70;5.50;;;;;;;31.60;18.74;99994.33;108290;1254;59789;-68
2023/04/11 10:44:16;;;;;;;14.80;5.70;;;;;;;31.24;19.37;99987.34;108297;1251;71729;-68
2023/04/11 10:46:52;;;;;;;14.00;5.20;;;;;;;31.68;19.11;99981.80;108253;1251;70108;-68
2023/04/11 10:49:41;;;;;;;9.50;5.30;;;;;;;31.54;19.25;99977.66;108264;1251;73394;-66
2023/04/11 10:52:20;;;;;;;14.80;5.30;;;;;;;32.01;18.86;99972.19;108320;1251;61221;-68
2023/04/11 10:54:50;;;;;;;11.00;5.00;;;;;;;32.51;18.51;99972.45;108253;1251;59329;-69
2023/04/11 10:57:25;;;;;;;13.90;5.40;;;;;;;32.56;18.31;99967.56;108226;1254;73403;-68
2023/04/11 10:59:57;;;;;;;11.00;5.10;;;;;;;32.86;18.08;99967.25;108225;1251;71362;-67
2023/04/11 11:02:25;;;;;;;12.40;4.70;;;;;;;33.10;17.93;99967.81;108226;1251;71380;-68
2023/04/11 11:04:54;;;;;;;8.60;4.70;;;;;;;32.95;17.76;99970.25;108346;1251;61264;-68
2023/04/11 11:07:23;;;;;;;9.70;4.50;;;;;;;32.25;18.12;99974.59;108244;1257;60743;-69
2023/04/11 11:09:52;;;;;;;9.70;4.70;;;;;;;32.23;18.30;99971.02;108415;1251;72991;-68
2023/04/11 11:12:20;;;;;;;13.60;5.60;;;;;;;32.13;18.46;99964.16;108242;1251;68531;-66
2023/04/11 11:14:49;;;;;;;13.40;4.90;;;;;;;31.40;19.20;99971.92;108243;1251;73262;-67
2023/04/11 11:17:19;;;;;;;8.90;4.90;;;;;;;30.72;19.29;99973.27;108329;1256;59470;-68
2023/04/11 11:19:50;;;;;;;13.50;4.90;;;;;;;30.15;19.68;99969.98;108333;1251;59550;-68
2023/04/11 11:22:24;;;;;;;17.90;5.60;;;;;;;29.91;20.18;99966.45;108346;1251;74012;-68